Time;durP1;ratioP1;P1;durP2;ratioP2;P2;SDS_P1;SDS_P2;PMS_P1;PMS_P2;Temp;Humidity;BMP_temperature;BMP_pressure;BME280_temperature;BME280_humidity;BME280_pressure;Samples;Min_cycle;Max_cycle;Signal;HPM_P1;HPM_P2
2022/04/20 07:07:42;;;;;;;2.88;1.60;;;;;;;;;;12897256;23;19989;-86
2022/04/20 07:12:43;;;;;;;3.88;2.22;;;;;;;;;;12912579;23;20015;-83
2022/04/20 07:17:44;;;;;;;3.28;2.22;;;;;;;;;;12877811;23;20008;-82
2022/04/20 07:22:50;;;;;;;4.75;2.30;;;;;;;;;;12889251;23;20004;-82
2022/04/20 07:27:52;;;;;;;4.30;2.78;;;;;;;;;;12861367;23;20004;-82
2022/04/20 07:32:53;;;;;;;5.00;2.55;;;;;;;;;;12858985;23;20038;-82
2022/04/20 07:37:54;;;;;;;4.05;2.60;;;;;;;;;;12856204;23;20017;-82
2022/04/20 07:42:55;;;;;;;5.18;3.25;;;;;;;;;;12858500;23;20027;-83
2022/04/20 07:47:57;;;;;;;7.32;3.17;;;;;;;;;;12857059;23;20004;-82
2022/04/20 07:52:59;;;;;;;4.88;3.40;;;;;;;;;;12855997;23;20326;-82
2022/04/20 07:58:01;;;;;;;4.72;2.83;;;;;;;;;;12860007;23;20079;-82
2022/04/20 08:03:10;;;;;;;5.15;3.20;;;;;;;;;;12864443;23;20444;-82
2022/04/20 08:08:11;;;;;;;5.68;3.70;;;;;;;;;;12869063;23;20005;-81
2022/04/20 08:18:32;;;;;;;13.00;8.57;;;;;;;;;;12897774;23;20020;-80
2022/04/20 08:23:33;;;;;;;9.02;3.63;;;;;;;;;;12899259;23;20091;-80
2022/04/20 08:28:34;;;;;;;5.50;4.28;;;;;;;;;;12865635;23;20000;-80
2022/04/20 08:33:35;;;;;;;7.28;3.83;;;;;;;;;;12893588;23;20056;-80
2022/04/20 08:38:37;;;;;;;6.22;2.90;;;;;;;;;;12867584;23;20015;-81
2022/04/20 08:43:42;;;;;;;7.60;4.10;;;;;;;;;;12864907;23;19997;-82
2022/04/20 08:48:43;;;;;;;3.47;2.60;;;;;;;;;;12893668;23;20001;-83
2022/04/20 08:53:44;;;;;;;7.72;5.72;;;;;;;;;;12866979;23;20001;-81
2022/04/20 08:58:48;;;;;;;7.55;3.40;;;;;;;;;;12863582;23;20005;-80
2022/04/20 09:03:50;;;;;;;8.20;3.55;;;;;;;;;;12866394;23;20314;-80
2022/04/20 09:08:53;;;;;;;6.85;5.78;;;;;;;;;;12887648;23;20004;-82
2022/04/20 09:13:54;;;;;;;5.05;3.22;;;;;;;;;;12862472;23;20012;-82
2022/04/20 09:18:55;;;;;;;4.22;3.13;;;;;;;;;;12872050;23;20004;-82
2022/04/20 09:24:06;;;;;;;5.13;2.90;;;;;;;;;;12851985;23;20012;-81
2022/04/20 09:29:10;;;;;;;4.05;2.25;;;;;;;;;;12855893;23;20048;-82
2022/04/20 09:34:30;;;;;;;4.25;2.50;;;;;;;;;;12820447;23;20031;-78
2022/04/20 09:39:31;;;;;;;8.07;4.00;;;;;;;;;;12876509;23;20001;-78
2022/04/20 09:44:35;;;;;;;3.78;2.65;;;;;;;;;;12850714;23;20004;-76
2022/04/20 09:49:38;;;;;;;4.07;1.95;;;;;;;;;;12873646;23;20001;-79
2022/04/20 09:54:49;;;;;;;5.07;2.40;;;;;;;;;;12845598;23;20005;-77
2022/04/20 10:00:00;;;;;;;4.95;2.78;;;;;;;;;;12872954;23;20063;-79
2022/04/20 10:05:01;;;;;;;5.13;2.92;;;;;;;;;;12853146;23;20055;-78
2022/04/20 10:10:04;;;;;;;7.60;3.88;;;;;;;;;;12874749;23;20024;-81
2022/04/20 10:20:34;;;;;;;6.85;2.95;;;;;;;;;;12840808;23;20185;-78
2022/04/20 10:25:35;;;;;;;4.22;1.98;;;;;;;;;;12851628;23;20013;-78
2022/04/20 10:30:36;;;;;;;3.00;1.70;;;;;;;;;;12854764;23;20067;-80
2022/04/20 10:35:54;;;;;;;3.42;2.90;;;;;;;;;;12853989;23;20032;-81
2022/04/20 10:40:59;;;;;;;4.22;2.20;;;;;;;;;;12858328;23;20467;-78
2022/04/20 10:46:07;;;;;;;4.00;2.00;;;;;;;;;;12857127;23;20016;-81
2022/04/20 10:51:16;;;;;;;4.13;2.58;;;;;;;;;;12856851;23;20493;-81
2022/04/20 10:56:18;;;;;;;3.20;2.63;;;;;;;;;;12887506;23;20451;-80
2022/04/20 11:01:19;;;;;;;5.07;2.55;;;;;;;;;;12889393;23;20008;-81
2022/04/20 11:06:21;;;;;;;3.90;2.85;;;;;;;;;;12860818;23;20004;-80
2022/04/20 11:22:28;;;;;;;4.55;3.15;;;;;;;;;;12889911;23;20032;-81
2022/04/20 11:27:38;;;;;;;4.13;2.55;;;;;;;;;;12867294;23;20004;-81
2022/04/20 11:32:39;;;;;;;3.30;2.38;;;;;;;;;;12886633;23;19997;-81
2022/04/20 11:37:40;;;;;;;6.00;4.05;;;;;;;;;;12860325;23;20063;-82
2022/04/20 11:42:42;;;;;;;7.47;4.32;;;;;;;;;;12866202;23;20008;-82
2022/04/20 11:47:43;;;;;;;7.57;3.47;;;;;;;;;;12864967;23;20063;-81
2022/04/20 11:52:57;;;;;;;3.22;2.53;;;;;;;;;;12866438;23;20015;-80
2022/04/20 11:58:11;;;;;;;6.03;3.67;;;;;;;;;;12867591;23;19984;-79
2022/04/20 12:03:12;;;;;;;4.82;3.47;;;;;;;;;;12865458;23;20019;-80
2022/04/20 12:08:15;;;;;;;7.70;3.60;;;;;;;;;;12868574;23;20019;-78
2022/04/20 12:13:16;;;;;;;5.88;2.70;;;;;;;;;;12871434;23;20040;-80
2022/04/20 12:18:17;;;;;;;4.22;2.92;;;;;;;;;;12863479;23;20001;-81
2022/04/20 12:23:18;;;;;;;6.38;3.00;;;;;;;;;;12887818;23;20001;-80
2022/04/20 12:34:00;;;;;;;3.63;2.77;;;;;;;;;;12736216;23;20023;-79
2022/04/20 12:39:01;;;;;;;5.80;3.67;;;;;;;;;;12857329;22;20025;-78
2022/04/20 12:44:06;;;;;;;9.82;6.40;;;;;;;;;;12879993;23;20103;-82
2022/04/20 12:49:07;;;;;;;3.95;3.55;;;;;;;;;;12906217;23;20000;-82
2022/04/20 12:54:08;;;;;;;3.03;2.63;;;;;;;;;;12877786;23;20000;-82
2022/04/20 13:04:29;;;;;;;9.40;3.50;;;;;;;;;;12909939;23;20012;-81
2022/04/20 13:09:30;;;;;;;5.38;3.25;;;;;;;;;;12883640;23;20004;-81
2022/04/20 13:14:31;;;;;;;4.22;2.67;;;;;;;;;;12866728;23;20005;-80
2022/04/20 13:19:33;;;;;;;8.35;3.78;;;;;;;;;;12858009;23;20005;-81
2022/04/20 13:29:55;;;;;;;5.87;3.00;;;;;;;;;;12891192;23;20056;-78
2022/04/20 13:34:56;;;;;;;6.93;3.30;;;;;;;;;;12866758;23;20044;-79
2022/04/20 13:39:57;;;;;;;5.53;3.67;;;;;;;;;;12844411;23;20468;-78
2022/04/20 13:44:58;;;;;;;6.93;3.67;;;;;;;;;;12845896;23;20075;-79
2022/04/20 13:50:00;;;;;;;4.90;3.72;;;;;;;;;;12852724;23;20095;-79
2022/04/20 13:55:01;;;;;;;4.40;3.55;;;;;;;;;;12850900;23;20009;-82
2022/04/20 14:00:03;;;;;;;6.05;3.70;;;;;;;;;;12856901;23;20010;-82
2022/04/20 14:05:04;;;;;;;5.53;3.20;;;;;;;;;;12873107;22;19997;-80
2022/04/20 14:10:08;;;;;;;4.82;3.20;;;;;;;;;;12858953;23;20129;-81
2022/04/20 14:15:09;;;;;;;4.78;2.55;;;;;;;;;;12879696;23;20464;-81
2022/04/20 14:20:11;;;;;;;4.07;3.25;;;;;;;;;;12853217;23;20425;-82
2022/04/20 14:35:51;;;;;;;4.13;3.23;;;;;;;;;;12882085;23;20017;-79
2022/04/20 14:40:52;;;;;;;4.15;2.63;;;;;;;;;;12856203;23;20072;-79
2022/04/20 14:45:53;;;;;;;4.60;2.60;;;;;;;;;;12855160;23;20004;-78
2022/04/20 14:50:54;;;;;;;4.85;3.00;;;;;;;;;;12853819;23;20107;-78
2022/04/20 14:55:55;;;;;;;4.07;2.42;;;;;;;;;;12879751;23;20008;-78
2022/04/20 15:00:56;;;;;;;4.10;2.53;;;;;;;;;;12850418;23;20036;-79
2022/04/20 15:05:57;;;;;;;3.92;1.80;;;;;;;;;;12846868;23;20092;-78
2022/04/20 15:11:00;;;;;;;2.90;2.03;;;;;;;;;;12850061;23;20032;-79
2022/04/20 15:16:01;;;;;;;2.42;1.73;;;;;;;;;;12853850;23;20026;-79
2022/04/20 15:21:03;;;;;;;5.47;3.28;;;;;;;;;;12852196;23;20069;-79
2022/04/20 15:26:04;;;;;;;5.30;3.25;;;;;;;;;;12855211;23;20028;-80
2022/04/20 15:31:07;;;;;;;5.72;3.40;;;;;;;;;;12853164;23;20414;-79
2022/04/20 15:36:08;;;;;;;4.75;2.63;;;;;;;;;;12765727;23;20024;-79
2022/04/20 15:41:10;;;;;;;3.47;2.80;;;;;;;;;;12736728;23;20438;-78
2022/04/20 15:46:12;;;;;;;3.00;2.20;;;;;;;;;;12737342;23;20041;-78
2022/04/20 15:51:13;;;;;;;5.07;2.70;;;;;;;;;;12739069;23;20006;-78
2022/04/20 16:01:35;;;;;;;6.57;3.75;;;;;;;;;;12767561;23;20088;-79
2022/04/20 16:06:38;;;;;;;5.57;2.95;;;;;;;;;;12768162;23;20008;-78
2022/04/20 16:11:40;;;;;;;4.85;4.03;;;;;;;;;;12740072;23;20037;-78
2022/04/20 16:16:42;;;;;;;5.00;2.60;;;;;;;;;;12738772;23;19997;-80
2022/04/20 16:21:44;;;;;;;3.35;2.88;;;;;;;;;;12778972;23;19997;-79
2022/04/20 16:26:52;;;;;;;4.18;2.28;;;;;;;;;;12756769;23;20005;-81
